createdAt,value
2022-10-26T00:00:28.576Z,100657.06
2022-10-26T00:02:55.649Z,100654.91
2022-10-26T00:05:25.076Z,100661.16
2022-10-26T00:07:51.379Z,100653.31
2022-10-26T00:10:17.727Z,100663.59
2022-10-26T00:12:44.050Z,100656.84
2022-10-26T00:15:10.595Z,100659.28
2022-10-26T00:17:36.927Z,100656.81
2022-10-26T00:20:03.490Z,100661.44
2022-10-26T00:22:29.870Z,100656.84
2022-10-26T00:24:56.165Z,100660.41
2022-10-26T00:27:22.488Z,100656.09
2022-10-26T00:29:48.842Z,100653.91
2022-10-26T00:32:15.357Z,100652.56
2022-10-26T00:34:41.668Z,100652.53
2022-10-26T00:37:08.006Z,100647.44
2022-10-26T00:39:34.326Z,100660.97
2022-10-26T00:42:01.005Z,100649.84
2022-10-26T00:44:49.158Z,100646.34
2022-10-26T00:47:24.884Z,100640.38
2022-10-26T00:49:54.775Z,100647.34
2022-10-26T00:52:22.674Z,100654.13
2022-10-26T00:54:49.582Z,100646.81
2022-10-26T00:57:17.184Z,100649.81
2022-10-26T00:59:45.538Z,100643.06
2022-10-26T01:02:13.075Z,100642.00
2022-10-26T01:04:39.472Z,100643.06
2022-10-26T01:07:07.616Z,100639.56
2022-10-26T01:09:34.184Z,100637.16
2022-10-26T01:12:00.520Z,100632.28
2022-10-26T01:14:28.348Z,100640.94
2022-10-26T01:19:53.277Z,100638.22
2022-10-26T01:22:28.103Z,100637.16
2022-10-26T01:25:08.802Z,100632.03
2022-10-26T01:27:45.376Z,100634.16
2022-10-26T01:30:14.077Z,100626.34
2022-10-26T01:33:05.133Z,100616.03
2022-10-26T01:35:38.311Z,100619.81
2022-10-26T01:38:17.821Z,100617.06
2022-10-26T01:40:54.521Z,100612.72
2022-10-26T01:43:22.797Z,100613.28
2022-10-26T01:45:51.420Z,100601.91
2022-10-26T01:48:20.390Z,100604.34
2022-10-26T01:50:49.606Z,100604.56
2022-10-26T01:53:16.307Z,100597.56
2022-10-26T01:55:50.348Z,100602.97
2022-10-26T01:58:54.244Z,100601.91
2022-10-26T02:01:45.655Z,100602.97
2022-10-26T02:05:06.577Z,100596.47
2022-10-26T02:07:59.328Z,100589.44
2022-10-26T02:10:28.301Z,100586.72
2022-10-26T02:12:57.843Z,100584.00
2022-10-26T02:15:33.753Z,100581.59
2022-10-26T02:18:13.296Z,100582.41
2022-10-26T02:20:45.109Z,100577.56
2022-10-26T02:23:13.419Z,100581.88
2022-10-26T02:25:46.047Z,100575.38
2022-10-26T02:28:21.199Z,100574.88
2022-10-26T02:30:50.676Z,100564.84
2022-10-26T02:33:18.949Z,100564.56
2022-10-26T02:35:50.042Z,100563.72
2022-10-26T02:38:19.821Z,100559.38
2022-10-26T02:40:48.495Z,100558.63
2022-10-26T02:43:17.474Z,100563.56
2022-10-26T02:45:48.227Z,100559.75
2022-10-26T02:48:15.226Z,100557.03
2022-10-26T02:50:50.866Z,100555.38
2022-10-26T02:53:22.083Z,100553.50
2022-10-26T02:55:50.634Z,100542.13
2022-10-26T02:58:23.203Z,100549.38
2022-10-26T03:00:50.661Z,100543.97
2022-10-26T03:03:18.110Z,100544.53
2022-10-26T03:05:44.455Z,100541.72
2022-10-26T03:08:10.978Z,100545.06
2022-10-26T03:10:42.064Z,100543.38
2022-10-26T03:13:09.794Z,100545.78
2022-10-26T03:15:36.551Z,100541.94
2022-10-26T03:18:03.076Z,100539.28
2022-10-26T03:20:29.493Z,100535.78
2022-10-26T03:22:55.825Z,100534.44
2022-10-26T03:25:22.747Z,100534.44
2022-10-26T03:27:57.408Z,100532.53
2022-10-26T03:30:23.717Z,100531.94
2022-10-26T03:32:50.031Z,100525.28
2022-10-26T03:35:16.409Z,100531.22
2022-10-26T03:37:42.759Z,100527.41
2022-10-26T03:40:09.808Z,100528.47
2022-10-26T03:42:37.274Z,100527.16
2022-10-26T03:45:04.618Z,100528.72
2022-10-26T03:47:30.927Z,100529.28
2022-10-26T03:49:57.442Z,100526.06
2022-10-26T03:52:23.827Z,100523.34
2022-10-26T03:54:51.238Z,100527.41
2022-10-26T03:57:18.122Z,100525.50
2022-10-26T03:59:44.444Z,100524.66
2022-10-26T04:02:10.774Z,100522.19
2022-10-26T04:04:37.193Z,100523.56
2022-10-26T04:07:03.790Z,100534.13
2022-10-26T04:09:30.095Z,100530.97
2022-10-26T04:11:56.456Z,100537.41
2022-10-26T04:14:22.842Z,100533.56
2022-10-26T04:16:49.172Z,100527.66
2022-10-26T04:19:15.549Z,100532.22
2022-10-26T04:21:41.896Z,100533.81
2022-10-26T04:24:09.784Z,100532.72
2022-10-26T04:26:36.115Z,100520.47
2022-10-26T04:29:02.572Z,100525.84
2022-10-26T04:31:28.930Z,100520.44
2022-10-26T04:33:55.359Z,100532.00
2022-10-26T04:36:21.677Z,100527.13
2022-10-26T04:38:49.601Z,100521.69
2022-10-26T04:41:16.098Z,100524.09
2022-10-26T04:43:42.522Z,100525.97
2022-10-26T04:46:09.729Z,100526.25
2022-10-26T04:48:37.657Z,100520.25
2022-10-26T04:51:04.070Z,100520.38
2022-10-26T04:53:30.441Z,100521.38
2022-10-26T04:55:58.176Z,100519.25
2022-10-26T04:58:24.564Z,100522.50
2022-10-26T05:00:51.297Z,100524.22
2022-10-26T05:03:17.615Z,100523.13
2022-10-26T05:05:43.944Z,100526.97
2022-10-26T05:08:10.327Z,100521.78
2022-10-26T05:10:36.672Z,100523.69
2022-10-26T05:13:03.060Z,100523.69
2022-10-26T05:15:29.890Z,100525.59
2022-10-26T05:18:01.414Z,100522.66
2022-10-26T05:20:28.315Z,100524.16
2022-10-26T05:22:55.249Z,100517.94
2022-10-26T05:25:21.603Z,100519.78
2022-10-26T05:27:47.920Z,100523.88
2022-10-26T05:30:14.319Z,100530.13
2022-10-26T05:32:40.739Z,100523.66
2022-10-26T05:35:07.449Z,100528.72
2022-10-26T05:37:33.818Z,100525.44
2022-10-26T05:40:00.133Z,100526.22
2022-10-26T05:42:26.449Z,100528.16
2022-10-26T05:44:52.784Z,100528.91
2022-10-26T05:47:19.100Z,100531.84
2022-10-26T05:49:45.421Z,100525.63
2022-10-26T05:52:11.754Z,100532.19
2022-10-26T05:54:38.065Z,100534.16
2022-10-26T05:57:04.642Z,100534.69
2022-10-26T05:59:31.193Z,100537.63
2022-10-26T06:02:39.851Z,100541.34
2022-10-26T06:05:09.355Z,100546.50
2022-10-26T06:07:35.976Z,100552.19
2022-10-26T06:10:02.941Z,100554.59
2022-10-26T06:12:29.469Z,100550.44
2022-10-26T06:14:56.294Z,100561.81
2022-10-26T06:17:28.491Z,100554.97
2022-10-26T06:20:06.674Z,100553.78
2022-10-26T06:22:46.832Z,100556.34
2022-10-26T06:25:27.459Z,100558.75
2022-10-26T06:28:24.282Z,100561.41
2022-10-26T06:30:51.635Z,100568.44
2022-10-26T06:33:29.047Z,100563.38
2022-10-26T06:36:23.955Z,100566.97
2022-10-26T06:39:09.034Z,100571.25
2022-10-26T06:41:36.508Z,100576.09
2022-10-26T06:44:04.556Z,100571.16
2022-10-26T06:46:39.847Z,100577.03
2022-10-26T06:49:09.338Z,100581.06
2022-10-26T06:51:43.342Z,100580.13
2022-10-26T06:54:36.483Z,100582.03
2022-10-26T06:57:03.070Z,100577.63
2022-10-26T06:59:40.020Z,100575.81
2022-10-26T07:02:06.803Z,100579.50
2022-10-26T07:04:33.413Z,100579.44
2022-10-26T07:06:59.759Z,100584.44
2022-10-26T07:09:26.180Z,100587.75
2022-10-26T07:11:52.482Z,100586.66
2022-10-26T07:14:18.823Z,100582.78
2022-10-26T07:16:45.160Z,100593.91
2022-10-26T07:19:11.500Z,100592.31
2022-10-26T07:21:37.871Z,100588.09
2022-10-26T07:24:04.414Z,100590.34
2022-10-26T07:26:30.807Z,100592.66
2022-10-26T07:28:57.126Z,100592.22
2022-10-26T07:31:23.506Z,100591.69
2022-10-26T07:33:49.862Z,100585.91
2022-10-26T07:36:16.211Z,100597.19
2022-10-26T07:38:42.528Z,100596.06
2022-10-26T07:41:08.819Z,100587.97
2022-10-26T07:43:35.130Z,100596.72
2022-10-26T07:46:01.428Z,100588.72
2022-10-26T07:48:27.778Z,100586.78
2022-10-26T07:50:54.099Z,100590.75
2022-10-26T07:53:23.960Z,100584.91
2022-10-26T07:55:57.512Z,100588.75
2022-10-26T07:58:23.985Z,100586.19
2022-10-26T08:00:50.592Z,100578.94
2022-10-26T08:03:17.991Z,100585.59
2022-10-26T08:05:48.111Z,100589.00
2022-10-26T08:08:14.467Z,100595.06
2022-10-26T08:10:44.825Z,100590.66
2022-10-26T08:13:11.648Z,100591.97
2022-10-26T08:15:38.893Z,100585.22
2022-10-26T08:18:05.249Z,100586.59
2022-10-26T08:20:32.006Z,100586.38
2022-10-26T08:22:59.546Z,100584.38
2022-10-26T08:25:25.899Z,100586.69
2022-10-26T08:27:52.616Z,100588.59
2022-10-26T08:30:18.920Z,100584.78
2022-10-26T08:32:45.230Z,100577.13
2022-10-26T08:35:11.582Z,100582.94
2022-10-26T08:37:37.906Z,100583.91
2022-10-26T08:40:04.558Z,100578.47
2022-10-26T08:42:38.707Z,100575.25
2022-10-26T08:45:24.393Z,100579.97
2022-10-26T08:47:59.484Z,100577.63
2022-10-26T08:50:31.597Z,100579.44
2022-10-26T08:53:08.684Z,100578.00
2022-10-26T08:58:20.391Z,100583.22
2022-10-26T09:00:49.787Z,100582.84
2022-10-26T09:03:18.122Z,100583.97
2022-10-26T09:05:53.748Z,100584.44
2022-10-26T09:08:33.502Z,100586.06
2022-10-26T09:11:13.182Z,100589.41
2022-10-26T09:13:42.450Z,100584.38
2022-10-26T09:16:28.889Z,100573.41
2022-10-26T09:19:26.443Z,100579.53
2022-10-26T09:21:58.654Z,100570.28
2022-10-26T09:24:32.081Z,100573.63
2022-10-26T09:27:15.972Z,100571.72
2022-10-26T09:29:43.375Z,100570.84
2022-10-26T09:32:19.671Z,100575.72
2022-10-26T09:35:02.958Z,100573.03
2022-10-26T09:37:36.914Z,100571.13
2022-10-26T09:40:44.385Z,100567.78
2022-10-26T09:43:21.061Z,100573.44
2022-10-26T09:45:51.612Z,100571.94
2022-10-26T09:48:35.058Z,100569.53
2022-10-26T09:51:04.570Z,100569.38
2022-10-26T09:53:31.981Z,100564.22
2022-10-26T09:56:08.392Z,100570.41
2022-10-26T09:58:40.636Z,100566.22
2022-10-26T10:01:07.242Z,100563.84
2022-10-26T10:03:33.580Z,100561.72
2022-10-26T10:06:18.975Z,100565.91
2022-10-26T10:09:12.691Z,100571.72
2022-10-26T10:11:57.318Z,100578.13
2022-10-26T10:14:26.973Z,100581.19
2022-10-26T10:17:21.170Z,100576.63
2022-10-26T10:19:47.700Z,100584.06
2022-10-26T10:22:17.020Z,100591.88
2022-10-26T10:24:54.379Z,100588.66
2022-10-26T10:27:20.758Z,100599.72
2022-10-26T10:29:59.714Z,100599.38
2022-10-26T10:32:34.070Z,100606.38
2022-10-26T10:35:23.282Z,100609.94
2022-10-26T10:37:51.078Z,100609.81
2022-10-26T10:40:28.571Z,100615.88
2022-10-26T10:43:05.205Z,100610.47
2022-10-26T10:45:32.495Z,100613.38
2022-10-26T10:48:18.742Z,100617.22
2022-10-26T10:50:55.186Z,100627.81
2022-10-26T10:53:48.510Z,100629.75
2022-10-26T10:56:35.193Z,100629.28
2022-10-26T10:59:38.654Z,100639.50
2022-10-26T11:02:32.962Z,100631.81
2022-10-26T11:04:59.235Z,100636.03
2022-10-26T11:07:28.081Z,100633.84
2022-10-26T11:09:56.053Z,100635.63
2022-10-26T11:12:28.858Z,100636.34
2022-10-26T11:15:06.620Z,100633.66
2022-10-26T11:17:40.897Z,100643.34
2022-10-26T11:20:16.897Z,100644.56
2022-10-26T11:22:59.707Z,100635.06
2022-10-26T11:25:33.238Z,100631.59
2022-10-26T11:28:18.261Z,100630.25
2022-10-26T11:30:52.117Z,100633.88
2022-10-26T11:33:35.480Z,100633.09
2022-10-26T11:36:06.038Z,100633.59
2022-10-26T11:38:46.684Z,100644.47
2022-10-26T11:41:29.273Z,100635.47
2022-10-26T11:44:23.089Z,100635.47
2022-10-26T11:46:55.754Z,100638.25
2022-10-26T11:49:33.435Z,100641.00
2022-10-26T11:52:18.452Z,100645.56
2022-10-26T11:54:51.105Z,100644.69
2022-10-26T11:57:18.547Z,100632.75
2022-10-26T12:00:10.199Z,100628.47
2022-10-26T12:02:47.804Z,100629.25
2022-10-26T12:05:19.704Z,100629.84
2022-10-26T12:08:00.167Z,100636.72
2022-10-26T12:10:29.654Z,100636.78
2022-10-26T12:13:22.487Z,100633.56
2022-10-26T12:16:03.567Z,100631.28
2022-10-26T12:18:54.632Z,100631.19
2022-10-26T12:21:25.973Z,100634.47
2022-10-26T12:24:23.371Z,100640.44
2022-10-26T12:26:57.716Z,100631.09
2022-10-26T12:29:47.945Z,100636.59
2022-10-26T12:32:32.591Z,100639.69
2022-10-26T12:35:02.046Z,100639.09
2022-10-26T12:37:35.580Z,100640.13
2022-10-26T12:40:32.604Z,100648.72
2022-10-26T12:43:19.245Z,100647.94
2022-10-26T12:46:06.696Z,100638.88
2022-10-26T12:48:49.843Z,100646.22
2022-10-26T12:51:22.195Z,100649.19
2022-10-26T12:54:03.286Z,100642.56
2022-10-26T12:56:38.964Z,100644.38
2022-10-26T12:59:24.958Z,100656.03
2022-10-26T13:02:03.489Z,100653.38
2022-10-26T13:04:51.633Z,100656.28
2022-10-26T13:07:24.408Z,100663.84
2022-10-26T13:09:59.708Z,100662.34
2022-10-26T13:12:27.535Z,100668.88
2022-10-26T13:15:05.929Z,100669.34
2022-10-26T13:20:06.316Z,100670.75
2022-10-26T13:22:33.198Z,100678.22
2022-10-26T13:25:02.510Z,100674.53
2022-10-26T13:27:34.715Z,100687.84
2022-10-26T13:30:04.051Z,100685.44
2022-10-26T13:32:37.507Z,100682.53
2022-10-26T13:35:05.158Z,100679.31
2022-10-26T13:37:33.609Z,100681.59
2022-10-26T13:40:00.664Z,100683.66
2022-10-26T13:42:32.939Z,100689.84
2022-10-26T13:45:05.610Z,100686.88
2022-10-26T13:47:57.469Z,100679.34
2022-10-26T13:50:29.981Z,100684.59
2022-10-26T13:53:11.728Z,100691.53
2022-10-26T13:55:51.051Z,100692.31
2022-10-26T13:58:20.112Z,100690.16
2022-10-26T14:01:15.320Z,100689.44
2022-10-26T14:03:42.490Z,100694.50
2022-10-26T14:06:15.618Z,100695.66
2022-10-26T14:08:44.034Z,100693.13
2022-10-26T14:11:14.170Z,100693.59
2022-10-26T14:13:42.789Z,100694.94
2022-10-26T14:16:12.886Z,100692.91
2022-10-26T14:18:42.357Z,100694.38
2022-10-26T14:21:15.487Z,100697.28
2022-10-26T14:23:50.402Z,100698.41
2022-10-26T14:26:29.961Z,100695.69
2022-10-26T14:29:01.670Z,100701.63
2022-10-26T14:31:30.562Z,100698.66
2022-10-26T14:33:58.809Z,100697.38
2022-10-26T14:36:32.173Z,100702.09
2022-10-26T14:39:03.526Z,100708.50
2022-10-26T14:41:30.717Z,100711.84
2022-10-26T14:43:59.815Z,100717.81
2022-10-26T14:46:28.839Z,100714.47
2022-10-26T14:48:57.353Z,100715.16
2022-10-26T14:51:34.319Z,100725.22
2022-10-26T14:54:02.390Z,100722.69
2022-10-26T14:56:38.366Z,100728.19
2022-10-26T14:59:31.404Z,100728.91
2022-10-26T15:02:19.498Z,100738.31
2022-10-26T15:04:59.597Z,100738.31
2022-10-26T15:07:38.122Z,100736.09
2022-10-26T15:10:05.789Z,100738.63
2022-10-26T15:12:37.706Z,100747.56
2022-10-26T15:15:18.727Z,100750.16
2022-10-26T15:17:56.553Z,100751.94
2022-10-26T15:20:25.564Z,100748.28
2022-10-26T15:23:02.720Z,100752.69
2022-10-26T15:25:35.341Z,100755.41
2022-10-26T15:28:25.399Z,100750.78
2022-10-26T15:31:06.811Z,100762.47
2022-10-26T15:33:34.534Z,100771.75
2022-10-26T15:36:17.434Z,100773.19
2022-10-26T15:38:44.878Z,100783.88
2022-10-26T15:41:14.010Z,100781.09
2022-10-26T15:43:40.394Z,100787.22
2022-10-26T15:46:06.905Z,100784.84
2022-10-26T15:48:33.451Z,100783.06
2022-10-26T15:50:59.977Z,100793.38
2022-10-26T15:53:27.283Z,100802.75
2022-10-26T15:55:56.098Z,100800.19
2022-10-26T15:58:23.127Z,100801.53
2022-10-26T16:00:49.899Z,100798.34
2022-10-26T16:03:19.956Z,100798.91
2022-10-26T16:05:46.590Z,100806.16
2022-10-26T16:08:18.013Z,100813.59
2022-10-26T16:10:45.464Z,100810.22
2022-10-26T16:13:14.528Z,100813.78
2022-10-26T16:15:41.680Z,100822.47
2022-10-26T16:18:08.205Z,100817.94
2022-10-26T16:20:34.835Z,100819.41
2022-10-26T16:23:01.434Z,100828.59
2022-10-26T16:25:27.811Z,100827.59
2022-10-26T16:27:55.031Z,100830.00
2022-10-26T16:30:23.853Z,100826.91
2022-10-26T16:32:53.614Z,100839.28
2022-10-26T16:35:20.125Z,100839.09
2022-10-26T16:37:46.522Z,100841.19
2022-10-26T16:40:13.298Z,100852.09
2022-10-26T16:42:39.697Z,100861.53
2022-10-26T16:45:06.542Z,100866.84
2022-10-26T16:47:33.643Z,100866.91
2022-10-26T16:50:00.029Z,100872.94
2022-10-26T16:52:26.423Z,100874.97
2022-10-26T16:54:52.770Z,100877.22
2022-10-26T16:57:19.144Z,100884.06
2022-10-26T16:59:45.636Z,100882.22
2022-10-26T17:02:14.318Z,100885.09
2022-10-26T17:04:40.790Z,100890.59
2022-10-26T17:07:07.163Z,100888.00
2022-10-26T17:09:33.570Z,100895.38
2022-10-26T17:12:02.056Z,100901.22
2022-10-26T17:14:28.989Z,100899.78
2022-10-26T17:16:55.435Z,100904.19
2022-10-26T17:19:21.896Z,100906.81
2022-10-26T17:21:48.282Z,100907.19
2022-10-26T17:24:14.673Z,100915.41
2022-10-26T17:26:41.616Z,100923.53
2022-10-26T17:31:41.021Z,100934.25
2022-10-26T17:34:07.430Z,100945.78
2022-10-26T17:36:33.898Z,100947.81
2022-10-26T17:39:00.338Z,100953.38
2022-10-26T17:41:26.976Z,100955.38
2022-10-26T17:43:53.520Z,100960.72
2022-10-26T17:46:25.321Z,100964.19
2022-10-26T17:48:59.174Z,100967.81
2022-10-26T17:51:27.560Z,100978.72
2022-10-26T17:53:54.977Z,100981.88
2022-10-26T17:56:24.046Z,100997.75
2022-10-26T17:58:52.047Z,100990.88
2022-10-26T18:01:18.699Z,101008.59
2022-10-26T18:03:45.142Z,101003.19
2022-10-26T18:06:11.502Z,101008.03
2022-10-26T18:08:38.706Z,101011.38
2022-10-26T18:11:06.888Z,101026.84
2022-10-26T18:13:34.137Z,101028.09
2022-10-26T18:16:08.941Z,101021.53
2022-10-26T18:18:35.900Z,101023.53
2022-10-26T18:21:04.316Z,101031.41
2022-10-26T18:23:30.695Z,101030.78
2022-10-26T18:26:11.386Z,101025.00
2022-10-26T18:28:40.088Z,101048.31
2022-10-26T18:31:09.649Z,101038.28
2022-10-26T18:33:36.358Z,101048.66
2022-10-26T18:36:05.813Z,101055.53
2022-10-26T18:38:32.699Z,101057.16
2022-10-26T18:40:59.754Z,101064.81
2022-10-26T18:43:27.144Z,101064.44
2022-10-26T18:46:01.700Z,101065.63
2022-10-26T18:48:28.015Z,101071.06
2022-10-26T18:50:54.315Z,101076.31
2022-10-26T18:53:20.603Z,101074.91
2022-10-26T18:55:46.927Z,101077.31
2022-10-26T18:58:13.420Z,101081.47
2022-10-26T19:00:41.599Z,101088.59
2022-10-26T19:03:08.030Z,101086.19
2022-10-26T19:05:35.157Z,101085.06
2022-10-26T19:08:01.477Z,101100.31
2022-10-26T19:10:27.838Z,101092.94
2022-10-26T19:12:54.460Z,101097.88
2022-10-26T19:15:21.283Z,101100.81
2022-10-26T19:17:47.605Z,101102.75
2022-10-26T19:20:14.044Z,101104.34
2022-10-26T19:22:40.353Z,101106.81
2022-10-26T19:25:07.244Z,101103.28
2022-10-26T19:27:33.566Z,101116.91
2022-10-26T19:29:59.894Z,101113.66
2022-10-26T19:32:29.321Z,101118.06
2022-10-26T19:34:55.695Z,101123.00
2022-10-26T19:37:23.717Z,101121.38
2022-10-26T19:39:52.374Z,101132.91
2022-10-26T19:42:18.706Z,101129.47
2022-10-26T19:44:45.028Z,101136.06
2022-10-26T19:47:11.322Z,101142.41
2022-10-26T19:49:37.620Z,101147.34
2022-10-26T19:52:04.095Z,101149.53
2022-10-26T19:54:30.434Z,101154.53
2022-10-26T19:56:56.766Z,101152.63
2022-10-26T19:59:23.078Z,101156.50
2022-10-26T20:01:49.448Z,101159.28
2022-10-26T20:04:15.833Z,101165.53
2022-10-26T20:06:42.125Z,101158.22
2022-10-26T20:09:08.541Z,101158.03
2022-10-26T20:11:35.074Z,101160.22
2022-10-26T20:14:01.387Z,101168.66
2022-10-26T20:16:27.716Z,101166.47
2022-10-26T20:18:54.011Z,101170.00
2022-10-26T20:21:20.365Z,101172.94
2022-10-26T20:23:46.670Z,101172.69
2022-10-26T20:26:14.959Z,101173.25
2022-10-26T20:28:49.590Z,101172.94
2022-10-26T20:31:15.968Z,101179.16
2022-10-26T20:33:42.639Z,101186.81
2022-10-26T20:36:09.158Z,101181.28
2022-10-26T20:38:36.197Z,101183.75
2022-10-26T20:41:06.207Z,101185.34
2022-10-26T20:43:38.783Z,101192.72
2022-10-26T20:46:05.805Z,101187.84
2022-10-26T20:48:32.470Z,101198.75
2022-10-26T20:53:57.285Z,101192.75
2022-10-26T20:56:25.682Z,101193.59
2022-10-26T20:59:00.853Z,101197.19
2022-10-26T21:01:27.454Z,101191.16
2022-10-26T21:03:55.561Z,101199.53
2022-10-26T21:06:22.734Z,101203.06
2022-10-26T21:08:50.412Z,101209.63
2022-10-26T21:11:17.737Z,101206.91
2022-10-26T21:13:46.365Z,101212.41
2022-10-26T21:16:13.061Z,101206.47
2022-10-26T21:18:39.949Z,101213.16
2022-10-26T21:21:06.457Z,101208.78
2022-10-26T21:23:36.135Z,101216.50
2022-10-26T21:26:03.549Z,101218.50
2022-10-26T21:28:38.227Z,101217.66
2022-10-26T21:31:06.945Z,101217.75
2022-10-26T21:33:33.358Z,101223.94
2022-10-26T21:36:00.395Z,101221.56
2022-10-26T21:38:31.198Z,101217.22
2022-10-26T21:41:20.135Z,101226.78
2022-10-26T21:43:49.136Z,101219.38
2022-10-26T21:46:16.677Z,101228.88
2022-10-26T21:48:43.299Z,101235.91
2022-10-26T21:51:15.325Z,101233.41
2022-10-26T21:53:42.047Z,101233.38
2022-10-26T21:56:12.197Z,101230.88
2022-10-26T21:58:39.087Z,101238.47
2022-10-26T22:01:15.987Z,101240.63
2022-10-26T22:03:43.467Z,101247.66
2022-10-26T22:06:12.206Z,101236.69
2022-10-26T22:08:38.942Z,101237.78
2022-10-26T22:11:12.992Z,101245.16
2022-10-26T22:13:42.312Z,101250.88
2022-10-26T22:16:11.717Z,101246.53
2022-10-26T22:18:40.775Z,101240.88
2022-10-26T22:21:08.006Z,101245.50
2022-10-26T22:23:35.629Z,101256.41
2022-10-26T22:26:04.239Z,101254.75
2022-10-26T22:28:32.874Z,101249.88
2022-10-26T22:31:07.804Z,101248.84
2022-10-26T22:33:35.002Z,101254.31
2022-10-26T22:36:05.513Z,101252.16
2022-10-26T22:38:31.837Z,101250.25
2022-10-26T22:40:58.587Z,101253.94
2022-10-26T22:43:25.051Z,101254.97
2022-10-26T22:46:15.910Z,101258.34
2022-10-26T22:48:42.616Z,101268.66
2022-10-26T22:51:11.817Z,101257.25
2022-10-26T22:53:38.448Z,101259.47
2022-10-26T22:56:07.407Z,101258.44
2022-10-26T22:58:35.297Z,101257.97
2022-10-26T23:01:10.800Z,101257.75
2022-10-26T23:03:37.597Z,101260.81
2022-10-26T23:06:06.560Z,101263.03
2022-10-26T23:08:33.095Z,101263.28
2022-10-26T23:11:00.738Z,101267.66
2022-10-26T23:13:27.832Z,101268.47
2022-10-26T23:15:54.479Z,101275.53
2022-10-26T23:18:20.837Z,101281.28
2022-10-26T23:20:50.915Z,101275.09
2022-10-26T23:23:18.087Z,101278.38
2022-10-26T23:25:44.467Z,101285.16
2022-10-26T23:28:10.814Z,101285.72
2022-10-26T23:30:37.264Z,101291.34
2022-10-26T23:33:04.091Z,101293.72
2022-10-26T23:35:30.503Z,101294.44
2022-10-26T23:37:57.861Z,101276.44
2022-10-26T23:40:25.074Z,101293.00
2022-10-26T23:42:51.816Z,101293.00
2022-10-26T23:45:18.386Z,101299.25
2022-10-26T23:47:44.709Z,101291.03
2022-10-26T23:50:11.012Z,101287.78
2022-10-26T23:52:37.323Z,101295.91
2022-10-26T23:55:03.771Z,101289.41
2022-10-26T23:57:30.092Z,101297.63
2022-10-26T23:59:56.399Z,101296.03
